Time;durP1;ratioP1;P1;durP2;ratioP2;P2;SDS_P1;SDS_P2;PMS_P1;PMS_P2;Temp;Humidity;BMP_temperature;BMP_pressure;BME280_temperature;BME280_humidity;BME280_pressure;Samples;Min_cycle;Max_cycle;Signal;HPM_P1;HPM_P2
2021/01/29 00:01:33;;;;;;;47.40;23.57;;;5.50;99.90;;;;;;4892501;29;20207;-85
2021/01/29 00:03:59;;;;;;;48.73;24.93;;;5.50;99.90;;;;;;4892394;29;20211;-77
2021/01/29 00:06:26;;;;;;;47.63;24.47;;;5.60;99.90;;;;;;4890998;29;20243;-87
2021/01/29 00:08:52;;;;;;;55.57;25.90;;;5.50;99.90;;;;;;4891194;29;20258;-80
2021/01/29 00:11:18;;;;;;;59.83;25.00;;;5.50;99.90;;;;;;4891650;29;20203;-80
2021/01/29 00:13:45;;;;;;;64.33;27.13;;;5.60;99.90;;;;;;4893202;29;20215;-86
2021/01/29 00:16:12;;;;;;;57.53;26.33;;;5.60;99.90;;;;;;4910427;29;20209;-82
2021/01/29 00:18:38;;;;;;;52.87;27.20;;;5.60;99.90;;;;;;4909793;29;20219;-83
2021/01/29 00:21:05;;;;;;;53.23;27.07;;;5.60;99.90;;;;;;4898403;29;20328;-78
2021/01/29 00:23:32;;;;;;;46.77;24.43;;;5.60;99.90;;;;;;4892554;29;20203;-81
2021/01/29 00:25:58;;;;;;;49.90;25.73;;;5.70;99.90;;;;;;4892838;29;20219;-79
2021/01/29 00:28:25;;;;;;;58.70;26.13;;;5.70;99.90;;;;;;4892318;29;20231;-82
2021/01/29 00:30:52;;;;;;;48.03;25.03;;;5.70;99.90;;;;;;4891946;29;20982;-82
2021/01/29 00:33:23;;;;;;;79.47;29.20;;;5.70;99.90;;;;;;4890766;29;20207;-77
2021/01/29 00:35:49;;;;;;;58.47;26.33;;;5.70;99.90;;;;;;4902641;29;20916;-76
2021/01/29 00:38:16;;;;;;;60.00;27.23;;;5.70;99.90;;;;;;4906497;29;20589;-85
2021/01/29 00:40:42;;;;;;;51.30;25.30;;;5.70;99.90;;;;;;4907739;29;20278;-79
2021/01/29 00:43:09;;;;;;;58.80;27.43;;;5.80;99.90;;;;;;4907403;29;20244;-76
2021/01/29 00:45:37;;;;;;;51.30;24.23;;;5.80;99.90;;;;;;4890584;29;20216;-75
2021/01/29 00:48:05;;;;;;;53.63;25.17;;;5.80;99.90;;;;;;4887518;29;20227;-79
2021/01/29 00:50:32;;;;;;;72.47;27.23;;;5.80;99.90;;;;;;4888829;29;20219;-75
2021/01/29 00:52:59;;;;;;;56.13;24.30;;;5.90;99.90;;;;;;4888342;29;20215;-75
2021/01/29 00:55:26;;;;;;;57.60;25.37;;;5.90;99.90;;;;;;4888455;29;20330;-77
2021/01/29 00:57:53;;;;;;;51.30;24.07;;;5.90;99.90;;;;;;4890234;29;20214;-76
2021/01/29 01:00:21;;;;;;;74.00;27.27;;;5.90;99.90;;;;;;4889260;29;20207;-75
2021/01/29 01:02:47;;;;;;;71.50;25.87;;;6.00;99.90;;;;;;4891162;29;20203;-75
2021/01/29 01:05:16;;;;;;;82.13;26.27;;;6.00;99.90;;;;;;4888910;29;20218;-75
2021/01/29 01:07:43;;;;;;;83.07;28.63;;;6.00;99.90;;;;;;4887268;29;20243;-81
2021/01/29 01:10:10;;;;;;;61.30;25.67;;;6.10;99.90;;;;;;4889428;29;20226;-83
2021/01/29 01:12:36;;;;;;;76.20;26.93;;;6.10;99.90;;;;;;4889305;29;20212;-75
2021/01/29 01:15:07;;;;;;;117.07;28.90;;;6.10;99.90;;;;;;4888954;29;20215;-77
2021/01/29 01:17:34;;;;;;;84.83;30.20;;;6.10;99.90;;;;;;4888173;29;20206;-75
2021/01/29 01:20:00;;;;;;;134.37;31.93;;;6.10;99.90;;;;;;4889708;29;20207;-83
2021/01/29 01:22:26;;;;;;;78.90;29.13;;;6.10;99.90;;;;;;4888812;29;20215;-79
2021/01/29 01:24:53;;;;;;;84.50;28.57;;;6.10;99.90;;;;;;4888494;29;20204;-75
2021/01/29 01:27:20;;;;;;;71.77;28.27;;;6.10;99.90;;;;;;4888416;29;20236;-81
2021/01/29 01:29:46;;;;;;;67.37;26.27;;;6.10;99.90;;;;;;4890516;29;20235;-80
2021/01/29 01:32:12;;;;;;;71.83;26.77;;;6.20;99.90;;;;;;4908182;29;20216;-75
2021/01/29 01:34:39;;;;;;;64.40;25.70;;;6.20;99.90;;;;;;4906901;29;20230;-76
2021/01/29 01:37:05;;;;;;;102.70;30.23;;;6.20;99.90;;;;;;4907887;29;20245;-84
2021/01/29 01:39:32;;;;;;;73.03;27.80;;;6.30;99.90;;;;;;4905544;29;20230;-76
2021/01/29 01:41:59;;;;;;;94.47;29.10;;;6.30;99.90;;;;;;4888166;29;20203;-80
2021/01/29 01:44:32;;;;;;;83.50;29.77;;;6.30;99.90;;;;;;4886508;29;20207;-76
2021/01/29 01:47:03;;;;;;;116.60;30.97;;;6.30;99.90;;;;;;4889035;29;20255;-86
2021/01/29 01:49:30;;;;;;;116.17;28.90;;;6.30;99.90;;;;;;4896399;29;20809;-87
2021/01/29 01:52:04;;;;;;;98.93;29.27;;;6.30;99.90;;;;;;4898514;29;20207;-88
2021/01/29 01:54:39;;;;;;;130.10;30.37;;;6.30;99.90;;;;;;4898510;29;20236;-88
2021/01/29 01:57:07;;;;;;;84.07;28.33;;;6.30;99.90;;;;;;4898463;29;20247;-88
2021/01/29 01:59:39;;;;;;;65.40;26.03;;;6.30;99.90;;;;;;4898428;29;20210;-87
2021/01/29 02:02:06;;;;;;;100.47;28.03;;;6.30;99.90;;;;;;4907197;29;20315;-89
2021/01/29 02:04:39;;;;;;;62.83;23.93;;;6.40;99.90;;;;;;4917007;29;20211;-88
2021/01/29 02:07:22;;;;;;;56.20;25.37;;;6.40;99.90;;;;;;4917066;29;20242;-90
2021/01/29 02:09:50;;;;;;;60.10;24.63;;;6.40;99.90;;;;;;4916962;29;20235;-89
2021/01/29 02:12:18;;;;;;;71.47;25.13;;;6.50;99.90;;;;;;4897451;29;20222;-89
2021/01/29 02:14:45;;;;;;;85.47;27.70;;;6.50;99.90;;;;;;4897966;29;20207;-89
2021/01/29 02:17:21;;;;;;;68.67;26.40;;;6.50;99.90;;;;;;4898391;29;20223;-88
2021/01/29 02:20:36;;;;;;;59.40;24.43;;;6.60;99.90;;;;;;4897337;29;20522;-89
2021/01/29 02:23:42;;;;;;;61.83;26.23;;;6.60;99.90;;;;;;4897049;29;20215;-89
2021/01/29 02:26:50;;;;;;;48.20;24.03;;;6.60;99.90;;;;;;4897757;29;20238;-82
2021/01/29 02:29:38;;;;;;;68.87;26.17;;;6.70;99.90;;;;;;4897502;29;20267;-84
2021/01/29 02:32:30;;;;;;;57.67;24.07;;;6.60;99.90;;;;;;4898068;29;20211;-90
2021/01/29 02:35:50;;;;;;;72.40;26.63;;;6.70;99.90;;;;;;4898636;29;20242;-90
2021/01/29 02:38:53;;;;;;;80.20;26.07;;;6.70;99.90;;;;;;4806168;29;20256;-89
2021/01/29 02:41:32;;;;;;;61.07;25.20;;;6.80;99.90;;;;;;4822336;29;20210;-90
2021/01/29 02:44:11;;;;;;;51.17;24.33;;;6.80;99.90;;;;;;4891198;29;20279;-85
2021/01/29 02:46:49;;;;;;;64.23;24.53;;;6.80;99.90;;;;;;4897563;29;20194;-90
2021/01/29 02:49:26;;;;;;;53.23;23.00;;;6.80;99.90;;;;;;4897124;29;20235;-90
2021/01/29 02:51:58;;;;;;;67.57;26.57;;;6.80;99.90;;;;;;4898087;29;20292;-90
2021/01/29 02:54:35;;;;;;;63.37;25.77;;;6.90;99.90;;;;;;4897249;29;20215;-89
2021/01/29 02:57:07;;;;;;;62.87;24.30;;;6.90;99.90;;;;;;4897604;29;20215;-89
2021/01/29 02:59:37;;;;;;;66.90;25.83;;;6.90;99.90;;;;;;4912836;29;20271;-89
2021/01/29 03:02:09;;;;;;;67.30;25.90;;;6.90;99.90;;;;;;4916190;29;20198;-89
2021/01/29 03:04:40;;;;;;;68.17;26.33;;;6.90;99.90;;;;;;4913840;29;20203;-87
2021/01/29 03:07:10;;;;;;;65.50;25.83;;;7.00;99.90;;;;;;4898274;29;20243;-79
2021/01/29 03:09:43;;;;;;;55.17;24.40;;;7.00;99.90;;;;;;4894419;29;20235;-83
2021/01/29 03:12:13;;;;;;;55.70;24.90;;;7.00;99.90;;;;;;4894694;29;20211;-88
2021/01/29 03:14:45;;;;;;;61.23;24.80;;;7.00;99.90;;;;;;4893048;29;20210;-85
2021/01/29 03:17:15;;;;;;;65.87;24.20;;;7.00;99.90;;;;;;4892367;29;20237;-84
2021/01/29 03:19:49;;;;;;;60.97;24.13;;;7.10;99.90;;;;;;4892979;29;20187;-79
2021/01/29 03:22:20;;;;;;;50.93;22.83;;;7.10;99.90;;;;;;4893033;29;20293;-86
2021/01/29 03:24:52;;;;;;;52.27;23.40;;;7.10;99.90;;;;;;4893459;29;20222;-89
2021/01/29 03:27:22;;;;;;;49.97;21.50;;;7.10;99.90;;;;;;4911473;29;20237;-87
2021/01/29 03:29:52;;;;;;;67.07;24.90;;;7.10;99.90;;;;;;4910737;29;20235;-84
2021/01/29 03:32:20;;;;;;;51.87;21.20;;;7.10;99.90;;;;;;4906402;29;20275;-83
2021/01/29 03:34:51;;;;;;;43.73;19.60;;;7.10;99.90;;;;;;4892961;29;20581;-83
2021/01/29 03:37:22;;;;;;;49.53;21.73;;;7.20;99.90;;;;;;4892372;29;20207;-78
2021/01/29 03:39:49;;;;;;;46.43;21.67;;;7.20;99.90;;;;;;4892044;29;20961;-85
2021/01/29 03:42:24;;;;;;;61.73;24.20;;;7.20;99.90;;;;;;4892780;29;20196;-87
2021/01/29 03:45:00;;;;;;;63.50;24.67;;;7.30;99.90;;;;;;4892632;29;20202;-81
2021/01/29 03:47:34;;;;;;;54.47;24.00;;;7.30;99.90;;;;;;4892172;29;20203;-81
2021/01/29 03:50:21;;;;;;;57.87;23.40;;;7.30;99.90;;;;;;4894523;29;20241;-86
2021/01/29 03:52:59;;;;;;;52.53;22.83;;;7.40;99.90;;;;;;4895090;29;20207;-89
2021/01/29 03:55:34;;;;;;;70.10;26.60;;;7.40;99.90;;;;;;4893881;29;20199;-84
2021/01/29 03:58:08;;;;;;;59.37;23.93;;;7.40;99.90;;;;;;4893680;29;20207;-80
2021/01/29 04:00:40;;;;;;;53.33;23.13;;;7.40;99.90;;;;;;4892370;29;20214;-85
2021/01/29 04:03:14;;;;;;;48.93;23.00;;;7.50;99.90;;;;;;4892157;29;20234;-85
2021/01/29 04:05:54;;;;;;;53.33;22.87;;;7.50;99.90;;;;;;4892367;29;20200;-88
2021/01/29 04:08:28;;;;;;;73.50;25.07;;;7.50;99.90;;;;;;4892879;29;20245;-82
2021/01/29 04:10:59;;;;;;;56.80;24.73;;;7.60;99.90;;;;;;4892230;29;20625;-86
2021/01/29 04:13:31;;;;;;;55.87;23.40;;;7.60;99.90;;;;;;4891780;29;20465;-83
2021/01/29 04:15:59;;;;;;;80.90;26.20;;;7.60;99.90;;;;;;4895554;29;20610;-80
2021/01/29 04:18:29;;;;;;;54.20;24.03;;;7.60;99.90;;;;;;4911647;29;20206;-88
2021/01/29 04:21:01;;;;;;;64.97;24.33;;;7.60;99.90;;;;;;4912093;29;20532;-82
2021/01/29 04:23:31;;;;;;;56.90;23.40;;;7.60;99.90;;;;;;4889151;29;20261;-86
2021/01/29 04:26:04;;;;;;;60.07;22.07;;;7.60;99.90;;;;;;4888802;29;20207;-86
2021/01/29 04:28:35;;;;;;;46.80;21.13;;;7.70;99.90;;;;;;4891430;29;20231;-86
2021/01/29 04:31:05;;;;;;;43.43;19.40;;;7.60;99.90;;;;;;4890781;29;20580;-82
2021/01/29 04:33:38;;;;;;;33.57;17.37;;;7.70;99.90;;;;;;4890861;29;20207;-83
2021/01/29 04:36:08;;;;;;;36.37;16.27;;;7.80;99.90;;;;;;4891766;29;20199;-85
2021/01/29 04:38:40;;;;;;;30.23;14.10;;;7.80;99.90;;;;;;4889665;29;20222;-86
2021/01/29 04:41:20;;;;;;;27.23;13.27;;;7.80;99.90;;;;;;4888843;29;20212;-86
2021/01/29 04:43:58;;;;;;;27.53;13.87;;;7.90;99.90;;;;;;4891219;29;20616;-88
2021/01/29 04:46:50;;;;;;;23.50;10.13;;;7.90;99.90;;;;;;4898106;29;20214;-83
2021/01/29 04:49:31;;;;;;;16.03;7.73;;;8.00;99.90;;;;;;4912729;29;20230;-78
2021/01/29 04:52:44;;;;;;;12.47;6.17;;;8.10;99.90;;;;;;4913054;29;20187;-86
2021/01/29 04:55:40;;;;;;;9.07;3.70;;;8.10;99.90;;;;;;4898533;29;20211;-88
2021/01/29 04:58:12;;;;;;;10.63;3.83;;;8.20;99.90;;;;;;4893604;29;20207;-88
2021/01/29 05:00:54;;;;;;;10.17;3.83;;;8.20;99.90;;;;;;4892888;29;20963;-82
2021/01/29 05:04:34;;;;;;;15.57;4.53;;;8.20;99.90;;;;;;4893331;29;20211;-86
2021/01/29 05:07:24;;;;;;;11.17;5.13;;;8.30;99.90;;;;;;4892685;29;20238;-83
2021/01/29 05:10:28;;;;;;;24.47;6.90;;;8.30;99.90;;;;;;4893615;29;20220;-88
2021/01/29 05:13:12;;;;;;;23.30;9.73;;;8.30;99.90;;;;;;4892604;29;20203;-86
2021/01/29 05:16:25;;;;;;;32.73;11.97;;;8.30;99.90;;;;;;4892598;29;20539;-79
2021/01/29 05:19:22;;;;;;;41.93;17.37;;;8.30;99.90;;;;;;4892705;29;20207;-86
2021/01/29 05:22:00;;;;;;;27.37;16.03;;;8.30;99.90;;;;;;4893054;29;20767;-85
2021/01/29 05:24:53;;;;;;;24.47;10.70;;;8.50;99.90;;;;;;4893155;29;20223;-82
2021/01/29 05:27:42;;;;;;;21.93;7.60;;;8.60;99.90;;;;;;4895836;29;20573;-82
2021/01/29 05:30:42;;;;;;;19.57;5.97;;;8.60;99.90;;;;;;4893545;29;20234;-88
2021/01/29 05:33:30;;;;;;;20.23;4.27;;;8.70;99.90;;;;;;4891341;29;20326;-84
2021/01/29 05:36:13;;;;;;;15.23;3.50;;;8.90;99.90;;;;;;4891408;29;20215;-85
2021/01/29 05:39:03;;;;;;;11.07;3.10;;;8.90;99.90;;;;;;4894966;29;20191;-90
2021/01/29 05:41:59;;;;;;;12.50;3.37;;;8.90;99.90;;;;;;4900068;29;20210;-88
2021/01/29 05:45:00;;;;;;;16.70;3.63;;;8.90;99.90;;;;;;4916503;29;20190;-88
2021/01/29 05:48:02;;;;;;;14.97;3.47;;;9.00;99.90;;;;;;4917346;29;20214;-88
2021/01/29 05:50:39;;;;;;;15.53;4.00;;;8.90;99.90;;;;;;4916885;29;20314;-85
2021/01/29 05:53:25;;;;;;;22.67;4.63;;;8.90;99.90;;;;;;4916809;29;20206;-90
2021/01/29 05:56:00;;;;;;;20.00;5.77;;;8.90;99.90;;;;;;4917179;29;20206;-89
2021/01/29 05:58:57;;;;;;;21.73;5.40;;;8.90;99.90;;;;;;4917264;29;20210;-88
2021/01/29 06:02:19;;;;;;;16.43;4.83;;;8.90;99.90;;;;;;4917141;29;20241;-90
2021/01/29 06:05:14;;;;;;;22.40;5.83;;;8.90;99.90;;;;;;4856837;29;20277;-88
2021/01/29 06:08:17;;;;;;;27.47;5.17;;;8.90;99.90;;;;;;4895159;29;20251;-87
2021/01/29 06:10:57;;;;;;;26.97;5.23;;;8.90;99.90;;;;;;4898441;29;20203;-88
2021/01/29 06:14:03;;;;;;;20.40;4.50;;;8.90;99.90;;;;;;4898088;29;20222;-89
2021/01/29 06:17:19;;;;;;;23.97;4.00;;;9.00;99.90;;;;;;4898062;29;20204;-88
2021/01/29 06:20:14;;;;;;;30.53;6.33;;;9.00;99.90;;;;;;4898378;29;20206;-86
2021/01/29 06:23:14;;;;;;;29.43;6.23;;;9.00;99.90;;;;;;4878874;29;20234;-89
2021/01/29 06:26:04;;;;;;;26.13;5.03;;;9.00;99.90;;;;;;4897219;29;20218;-89
2021/01/29 06:28:55;;;;;;;30.67;5.03;;;9.00;99.90;;;;;;4904568;29;20245;-88
2021/01/29 06:31:53;;;;;;;23.37;4.53;;;8.90;99.90;;;;;;4916761;29;20203;-88
2021/01/29 06:34:39;;;;;;;24.73;4.97;;;8.90;99.90;;;;;;4903235;29;20239;-88
2021/01/29 06:37:16;;;;;;;36.47;4.80;;;9.00;99.90;;;;;;4891604;29;20584;-89
2021/01/29 06:40:01;;;;;;;25.57;4.93;;;9.00;99.90;;;;;;4896221;29;20905;-89
2021/01/29 06:43:08;;;;;;;31.53;6.63;;;9.00;99.90;;;;;;4898107;29;20218;-90
2021/01/29 06:46:09;;;;;;;22.90;4.53;;;9.00;99.90;;;;;;4897349;29;20204;-87
2021/01/29 06:49:09;;;;;;;30.50;6.57;;;9.00;99.90;;;;;;4887687;29;20230;-89
2021/01/29 06:52:15;;;;;;;29.43;6.07;;;9.10;99.90;;;;;;4894929;29;20215;-82
2021/01/29 06:55:08;;;;;;;30.17;6.20;;;9.10;99.90;;;;;;4895845;29;20207;-86
2021/01/29 06:58:06;;;;;;;22.23;4.93;;;9.00;99.90;;;;;;4888531;29;20210;-87
2021/01/29 07:00:46;;;;;;;22.43;5.37;;;9.10;99.90;;;;;;4857042;29;20211;-85
2021/01/29 07:03:44;;;;;;;30.53;6.03;;;9.10;99.90;;;;;;4903617;29;20214;-84
2021/01/29 07:06:30;;;;;;;19.93;5.03;;;9.10;99.90;;;;;;4915300;29;20238;-88
2021/01/29 07:09:10;;;;;;;26.13;5.57;;;9.20;99.90;;;;;;4915950;29;20226;-90
2021/01/29 07:12:05;;;;;;;31.77;5.63;;;9.20;99.90;;;;;;4916001;29;20206;-89
2021/01/29 07:14:50;;;;;;;28.40;5.30;;;9.10;99.90;;;;;;4888109;29;20211;-84
2021/01/29 07:17:22;;;;;;;31.50;6.27;;;9.20;99.90;;;;;;4897132;29;20222;-88
2021/01/29 07:20:16;;;;;;;24.73;6.57;;;9.20;99.90;;;;;;4896457;29;20390;-88
2021/01/29 07:23:08;;;;;;;23.60;6.23;;;9.30;99.90;;;;;;4902392;29;20233;-87
2021/01/29 07:25:43;;;;;;;33.83;6.00;;;9.20;99.90;;;;;;4915688;29;20262;-89
2021/01/29 07:28:25;;;;;;;35.60;7.07;;;9.30;99.90;;;;;;4906211;29;20237;-89
2021/01/29 07:31:18;;;;;;;30.83;6.33;;;9.20;99.90;;;;;;4897109;29;20231;-89
2021/01/29 07:33:53;;;;;;;27.77;6.53;;;9.20;99.90;;;;;;4894758;29;20632;-84
2021/01/29 07:36:45;;;;;;;29.30;7.10;;;9.20;99.90;;;;;;4908998;29;20575;-88
2021/01/29 07:39:38;;;;;;;35.37;6.63;;;9.10;99.90;;;;;;4913895;29;20876;-88
2021/01/29 07:42:19;;;;;;;35.03;6.73;;;9.20;99.90;;;;;;4911290;29;20206;-88
2021/01/29 07:45:01;;;;;;;36.30;7.10;;;9.20;99.90;;;;;;4895772;29;20637;-86
2021/01/29 07:48:00;;;;;;;36.07;7.20;;;9.10;99.90;;;;;;4894221;29;20200;-87
2021/01/29 07:50:31;;;;;;;32.43;6.53;;;9.10;99.90;;;;;;4896007;29;20238;-88
2021/01/29 07:53:04;;;;;;;38.27;7.40;;;9.10;99.90;;;;;;4895953;29;20211;-84
2021/01/29 07:55:44;;;;;;;38.93;8.33;;;9.10;99.90;;;;;;4895871;29;20211;-86
2021/01/29 07:58:24;;;;;;;41.10;7.87;;;9.10;99.90;;;;;;4899924;29;20246;-79
2021/01/29 08:01:10;;;;;;;45.83;7.20;;;9.10;99.90;;;;;;4912971;29;20198;-86
2021/01/29 08:03:58;;;;;;;42.50;8.13;;;9.10;99.90;;;;;;4890099;29;20204;-89
2021/01/29 08:06:27;;;;;;;32.43;7.43;;;9.10;99.90;;;;;;4890133;29;20251;-88
2021/01/29 08:08:57;;;;;;;38.63;7.37;;;9.20;99.90;;;;;;4890971;29;20231;-88
2021/01/29 08:11:25;;;;;;;43.97;7.67;;;9.10;99.90;;;;;;4893235;29;20207;-88
2021/01/29 08:14:25;;;;;;;34.57;7.03;;;9.10;99.90;;;;;;4895764;29;20211;-87
2021/01/29 08:17:12;;;;;;;44.00;9.00;;;9.10;99.90;;;;;;4895971;29;20203;-87
2021/01/29 08:19:53;;;;;;;40.73;8.03;;;9.10;99.90;;;;;;4914082;29;20206;-87
2021/01/29 08:22:43;;;;;;;50.77;8.07;;;9.10;99.90;;;;;;4913707;29;20269;-85
2021/01/29 08:25:23;;;;;;;42.43;6.53;;;9.10;99.90;;;;;;4912266;29;20203;-85
2021/01/29 08:28:16;;;;;;;47.60;8.00;;;9.10;99.90;;;;;;4891493;29;20623;-82
2021/01/29 08:31:08;;;;;;;39.60;7.43;;;9.10;99.90;;;;;;4889293;29;20231;-85
2021/01/29 08:34:01;;;;;;;38.43;7.50;;;9.10;99.90;;;;;;4888832;29;20223;-81
2021/01/29 08:54:26;;;;;;;36.43;6.57;;;9.10;99.90;;;;;;4745150;30;20383;-84
2021/01/29 08:57:02;;;;;;;44.30;8.57;;;9.10;99.90;;;;;;4853574;29;20212;-83
2021/01/29 08:59:33;;;;;;;39.43;7.43;;;9.10;99.90;;;;;;4855496;29;20220;-78
2021/01/29 09:02:07;;;;;;;42.63;7.83;;;9.10;99.90;;;;;;4869590;23;20208;-81
2021/01/29 09:04:41;;;;;;;43.67;7.47;;;9.10;99.90;;;;;;4928664;29;20230;-85
2021/01/29 09:07:16;;;;;;;46.80;8.37;;;9.10;99.90;;;;;;4934258;29;20208;-77
2021/01/29 09:09:44;;;;;;;44.23;8.10;;;9.10;99.90;;;;;;4934019;29;20287;-84
2021/01/29 09:12:18;;;;;;;44.37;7.80;;;9.10;99.90;;;;;;4934697;29;20257;-83
2021/01/29 09:14:52;;;;;;;47.03;8.63;;;9.10;99.90;;;;;;4918683;29;20229;-77
2021/01/29 09:17:40;;;;;;;44.83;8.00;;;9.10;99.90;;;;;;4914604;29;20198;-79
2021/01/29 09:20:09;;;;;;;39.63;7.67;;;9.10;99.90;;;;;;4915176;29;20199;-84
2021/01/29 09:22:40;;;;;;;34.00;7.60;;;9.10;99.90;;;;;;4915040;29;20213;-82
2021/01/29 09:25:16;;;;;;;40.80;7.57;;;9.10;99.90;;;;;;4933238;29;20237;-81
2021/01/29 09:27:54;;;;;;;43.10;8.77;;;9.10;99.90;;;;;;4932911;29;20198;-82
2021/01/29 09:30:26;;;;;;;36.67;8.00;;;9.20;99.90;;;;;;4931989;29;20218;-81
2021/01/29 09:32:56;;;;;;;45.87;9.53;;;9.10;99.90;;;;;;4932099;29;20288;-77
2021/01/29 09:35:42;;;;;;;41.53;7.27;;;9.20;99.90;;;;;;4947064;29;20257;-82
2021/01/29 09:38:14;;;;;;;33.77;7.20;;;9.20;99.90;;;;;;4951162;29;20212;-78
2021/01/29 09:41:01;;;;;;;42.20;8.80;;;9.20;99.90;;;;;;4943473;29;20217;-84
2021/01/29 09:43:49;;;;;;;34.67;8.20;;;9.30;99.90;;;;;;4933024;29;20205;-83
2021/01/29 09:46:22;;;;;;;32.00;6.67;;;9.30;99.90;;;;;;4919646;29;20210;-81
2021/01/29 09:48:54;;;;;;;36.27;7.40;;;9.30;99.90;;;;;;4932756;29;20292;-78
2021/01/29 09:51:44;;;;;;;38.40;7.53;;;9.20;99.90;;;;;;4932642;29;20257;-84
2021/01/29 09:54:18;;;;;;;43.80;8.17;;;9.30;99.90;;;;;;4932334;29;20214;-83
2021/01/29 09:56:53;;;;;;;38.87;8.30;;;9.30;99.90;;;;;;4931148;29;20292;-78
2021/01/29 09:59:30;;;;;;;42.63;8.53;;;9.30;99.90;;;;;;4933118;29;20193;-84
2021/01/29 10:02:02;;;;;;;39.33;7.97;;;9.30;99.90;;;;;;4931754;29;20202;-82
2021/01/29 10:04:34;;;;;;;37.70;8.50;;;9.30;99.90;;;;;;4931935;29;20622;-80
2021/01/29 10:07:04;;;;;;;40.10;8.20;;;9.30;99.90;;;;;;4931240;28;20284;-81
2021/01/29 10:09:35;;;;;;;41.30;9.73;;;9.30;99.90;;;;;;4930826;29;20257;-83
2021/01/29 10:12:12;;;;;;;43.60;9.03;;;9.30;99.90;;;;;;4931270;29;20221;-81
2021/01/29 10:14:51;;;;;;;36.87;7.57;;;9.30;99.90;;;;;;4913924;29;20206;-79
2021/01/29 10:17:24;;;;;;;38.47;8.60;;;9.30;99.90;;;;;;4931488;29;20218;-84
2021/01/29 10:19:56;;;;;;;44.27;9.63;;;9.40;99.90;;;;;;4930910;29;20224;-84
2021/01/29 10:22:43;;;;;;;53.07;9.63;;;9.40;99.90;;;;;;4939825;29;20292;-82
2021/01/29 10:25:18;;;;;;;41.63;9.07;;;9.50;99.90;;;;;;4950478;29;20225;-85
2021/01/29 10:27:52;;;;;;;44.63;8.17;;;9.40;99.90;;;;;;4938851;29;20225;-84
2021/01/29 10:30:26;;;;;;;44.87;8.37;;;9.40;99.90;;;;;;4926431;29;20225;-82
2021/01/29 10:32:59;;;;;;;32.93;6.73;;;9.40;99.90;;;;;;4944552;29;20209;-82
2021/01/29 10:35:30;;;;;;;37.47;8.77;;;9.40;99.90;;;;;;4949870;29;20221;-82
2021/01/29 10:38:04;;;;;;;35.90;9.00;;;9.40;99.90;;;;;;4949136;29;20269;-81
2021/01/29 10:40:35;;;;;;;39.40;9.57;;;9.50;99.90;;;;;;4949247;29;20197;-77
2021/01/29 10:43:14;;;;;;;37.93;8.10;;;9.50;99.90;;;;;;4950664;29;20244;-84
2021/01/29 10:46:15;;;;;;;42.13;8.73;;;9.50;99.90;;;;;;4938659;29;20272;-80
2021/01/29 10:48:50;;;;;;;45.37;9.37;;;9.50;99.90;;;;;;4930092;29;20210;-85
2021/01/29 10:51:27;;;;;;;42.73;8.97;;;9.60;99.90;;;;;;4929709;29;20253;-80
2021/01/29 10:53:58;;;;;;;44.13;7.90;;;9.70;99.90;;;;;;4928623;29;20292;-83
2021/01/29 10:56:28;;;;;;;34.87;9.10;;;9.70;99.90;;;;;;4929955;29;20214;-82
2021/01/29 10:59:04;;;;;;;41.90;9.20;;;9.80;99.90;;;;;;4929764;29;20210;-84
2021/01/29 14:12:11;;;;;;;33.00;7.60;;;10.00;99.90;;;;;;5120905;27;20565;-78
2021/01/29 14:14:57;;;;;;;35.53;7.43;;;10.00;99.90;;;;;;5104937;28;20207;-80
2021/01/29 14:17:34;;;;;;;31.30;6.23;;;10.00;99.90;;;;;;5101871;28;20207;-81
2021/01/29 14:20:13;;;;;;;20.73;5.13;;;9.90;99.90;;;;;;5100364;28;20654;-77
2021/01/29 14:22:44;;;;;;;25.70;5.70;;;9.90;99.90;;;;;;5112170;28;20237;-76
2021/01/29 14:25:32;;;;;;;29.57;6.07;;;10.00;99.90;;;;;;5121845;28;20242;-81
2021/01/29 14:28:08;;;;;;;34.03;7.67;;;10.00;99.90;;;;;;5086715;28;20236;-81
2021/01/29 14:30:46;;;;;;;29.23;6.20;;;10.00;99.90;;;;;;5081914;28;20289;-78
2021/01/29 14:33:30;;;;;;;28.40;5.27;;;10.00;99.90;;;;;;5080692;28;20262;-83
2021/01/29 14:36:04;;;;;;;33.93;8.03;;;10.00;99.90;;;;;;5080291;28;20204;-82
2021/01/29 14:39:02;;;;;;;28.73;6.57;;;10.00;99.90;;;;;;5098347;28;20219;-81
2021/01/29 14:41:37;;;;;;;41.63;8.60;;;10.00;99.90;;;;;;5090381;28;20266;-79
2021/01/29 14:44:21;;;;;;;25.27;6.07;;;10.00;99.90;;;;;;5094206;28;20207;-80
2021/01/29 14:47:03;;;;;;;20.80;5.73;;;10.00;99.90;;;;;;5089337;28;20201;-82
2021/01/29 14:50:01;;;;;;;35.80;9.17;;;10.00;99.90;;;;;;5080150;28;20204;-78
2021/01/29 14:52:42;;;;;;;31.13;6.97;;;10.00;99.90;;;;;;5081354;28;20207;-79
2021/01/29 14:55:11;;;;;;;29.73;6.40;;;10.00;99.90;;;;;;5076660;28;20201;-79
2021/01/29 14:57:40;;;;;;;22.00;4.93;;;9.90;99.90;;;;;;5084159;28;20216;-79
2021/01/29 15:00:10;;;;;;;26.63;6.30;;;9.90;99.90;;;;;;5098279;28;20211;-78
2021/01/29 15:02:42;;;;;;;25.53;5.53;;;9.90;99.90;;;;;;5078297;28;20201;-79
2021/01/29 15:05:11;;;;;;;38.90;8.00;;;9.90;99.90;;;;;;5089273;28;20211;-79
2021/01/29 15:07:40;;;;;;;29.90;6.03;;;9.90;99.90;;;;;;5097130;28;20215;-78
2021/01/29 15:10:09;;;;;;;25.60;5.53;;;9.90;99.90;;;;;;5077751;28;20530;-79
2021/01/29 15:12:40;;;;;;;22.77;5.63;;;9.90;99.90;;;;;;5082330;28;20928;-79
2021/01/29 15:15:36;;;;;;;30.40;6.00;;;9.90;99.90;;;;;;5095742;28;20491;-80
2021/01/29 15:18:05;;;;;;;27.00;6.30;;;9.90;99.90;;;;;;5090298;28;20211;-80
2021/01/29 15:20:35;;;;;;;28.30;6.57;;;9.90;99.90;;;;;;5095052;28;20199;-79
2021/01/29 15:23:23;;;;;;;23.27;4.73;;;9.80;99.90;;;;;;5067639;28;20612;-80
2021/01/29 15:26:08;;;;;;;29.43;7.40;;;9.80;99.90;;;;;;5064199;28;20259;-79
2021/01/29 15:28:38;;;;;;;27.03;5.23;;;9.80;99.90;;;;;;5064292;28;20228;-80
2021/01/29 15:31:12;;;;;;;28.97;5.87;;;9.80;99.90;;;;;;5078851;28;20232;-80
2021/01/29 15:33:43;;;;;;;21.47;6.03;;;9.70;99.90;;;;;;5089116;28;20200;-84
2021/01/29 15:36:43;;;;;;;22.07;5.33;;;9.80;99.90;;;;;;5088668;28;20290;-89
2021/01/29 15:39:26;;;;;;;20.47;4.70;;;9.80;99.90;;;;;;5069150;28;20235;-81
2021/01/29 15:41:54;;;;;;;28.67;5.53;;;9.70;99.90;;;;;;5064625;28;20209;-81
2021/01/29 15:44:51;;;;;;;18.77;4.33;;;9.60;99.90;;;;;;5066219;28;20205;-80
2021/01/29 15:47:47;;;;;;;29.33;5.57;;;9.60;99.90;;;;;;5064792;28;20209;-81
2021/01/29 15:50:47;;;;;;;17.10;4.80;;;9.50;99.90;;;;;;5084603;28;20301;-80
2021/01/29 15:53:44;;;;;;;22.40;4.43;;;9.50;99.90;;;;;;5084638;28;20250;-81
2021/01/29 15:56:21;;;;;;;21.10;4.83;;;9.40;99.90;;;;;;5085046;28;20216;-80
2021/01/29 15:58:50;;;;;;;20.70;5.43;;;9.40;99.90;;;;;;5085116;28;20209;-78
2021/01/29 16:01:32;;;;;;;20.87;4.43;;;9.50;99.90;;;;;;5085238;28;20204;-81
2021/01/29 16:04:00;;;;;;;24.73;5.23;;;9.50;99.90;;;;;;5058264;28;20869;-82
2021/01/29 16:06:38;;;;;;;19.73;4.60;;;9.50;99.90;;;;;;5083449;28;20958;-84
2021/01/29 16:09:11;;;;;;;16.80;4.17;;;9.60;99.90;;;;;;5084088;28;20204;-81
2021/01/29 16:11:37;;;;;;;22.67;5.40;;;9.50;99.90;;;;;;5083590;28;20237;-81
2021/01/29 16:14:08;;;;;;;20.77;4.47;;;9.50;99.90;;;;;;5084542;28;20528;-80
2021/01/29 16:16:35;;;;;;;17.90;3.93;;;9.50;99.90;;;;;;5079254;28;20496;-80
2021/01/29 16:19:06;;;;;;;22.00;5.00;;;9.40;99.90;;;;;;5080677;28;20677;-80
2021/01/29 16:21:36;;;;;;;23.63;4.67;;;9.40;99.90;;;;;;5071814;28;20274;-81
2021/01/29 16:24:04;;;;;;;22.03;4.73;;;9.40;99.90;;;;;;5084497;28;20207;-83
2021/01/29 16:26:35;;;;;;;19.30;4.40;;;9.40;99.90;;;;;;5076910;28;20615;-82
2021/01/29 16:29:06;;;;;;;15.03;4.10;;;9.30;99.90;;;;;;5082210;28;20230;-81
2021/01/29 16:31:36;;;;;;;23.80;5.00;;;9.20;99.90;;;;;;5064867;28;20229;-81
2021/01/29 16:34:06;;;;;;;17.90;3.77;;;9.20;99.90;;;;;;5060206;28;20553;-80
2021/01/29 16:36:34;;;;;;;22.03;4.80;;;9.10;99.90;;;;;;5077452;28;20208;-78
2021/01/29 16:39:14;;;;;;;14.33;3.60;;;9.00;99.90;;;;;;5063293;28;20214;-79
2021/01/29 16:41:40;;;;;;;21.10;3.43;;;8.80;99.90;;;;;;5062968;28;20216;-78
2021/01/29 16:44:39;;;;;;;17.33;3.47;;;8.70;99.90;;;;;;5064554;28;20197;-80
2021/01/29 16:47:19;;;;;;;13.63;3.53;;;8.70;99.90;;;;;;5065401;28;20225;-83
2021/01/29 16:49:47;;;;;;;19.33;4.50;;;8.60;99.90;;;;;;5065836;28;20760;-79
2021/01/29 16:52:15;;;;;;;14.13;3.70;;;8.60;99.90;;;;;;5064358;28;20217;-81
2021/01/29 16:54:44;;;;;;;21.27;4.43;;;8.60;99.90;;;;;;5065115;28;20201;-81
2021/01/29 16:57:18;;;;;;;20.23;4.07;;;8.50;99.90;;;;;;5066426;28;20751;-80
2021/01/29 16:59:45;;;;;;;21.73;3.67;;;8.50;99.90;;;;;;5085136;28;20662;-80
2021/01/29 17:02:14;;;;;;;23.60;4.67;;;8.40;99.90;;;;;;5072047;28;20324;-83
2021/01/29 17:04:43;;;;;;;28.93;5.80;;;8.50;99.90;;;;;;5067594;28;20300;-78
2021/01/29 17:07:12;;;;;;;25.47;5.63;;;8.40;99.90;;;;;;5073116;28;20213;-78
2021/01/29 17:09:41;;;;;;;25.10;4.10;;;8.40;99.90;;;;;;5065727;28;20592;-81